sensor_id;sensor_type;location;lat;lon;timestamp;pressure;altitude;pressure_sealevel;temperature;humidity
45327;BME280;31062;49.678;24.560;2023-01-27T00:02:37;98417.53;;;0.12;70.39
45327;BME280;31062;49.678;24.560;2023-01-27T00:05:23;98411.81;;;0.15;70.64
45327;BME280;31062;49.678;24.560;2023-01-27T00:08:09;98446.69;;;0.39;70.36
45327;BME280;31062;49.678;24.560;2023-01-27T00:10:58;98442.47;;;0.32;70.13
45327;BME280;31062;49.678;24.560;2023-01-27T00:14:02;98448.41;;;0.36;70.82
45327;BME280;31062;49.678;24.560;2023-01-27T00:16:48;98440.00;;;0.34;70.18
45327;BME280;31062;49.678;24.560;2023-01-27T00:19:33;98472.72;;;0.34;69.83
45327;BME280;31062;49.678;24.560;2023-01-27T00:22:20;98285.47;;;-0.67;70.31
45327;BME280;31062;49.678;24.560;2023-01-27T00:25:23;98441.97;;;0.39;70.20
45327;BME280;31062;49.678;24.560;2023-01-27T00:28:09;98459.81;;;0.40;70.55
45327;BME280;31062;49.678;24.560;2023-01-27T00:30:55;98237.97;;;-0.89;70.22
45327;BME280;31062;49.678;24.560;2023-01-27T00:33:40;98449.84;;;0.49;69.74
45327;BME280;31062;49.678;24.560;2023-01-27T00:36:30;98405.56;;;0.26;70.06
45327;BME280;31062;49.678;24.560;2023-01-27T00:39:15;98417.91;;;0.38;70.40
45327;BME280;31062;49.678;24.560;2023-01-27T00:42:01;98461.47;;;0.60;70.14
45327;BME280;31062;49.678;24.560;2023-01-27T00:44:47;98435.41;;;0.65;69.63
45327;BME280;31062;49.678;24.560;2023-01-27T00:47:51;98428.22;;;0.62;69.56
45327;BME280;31062;49.678;24.560;2023-01-27T00:50:36;98436.88;;;0.66;69.42
45327;BME280;31062;49.678;24.560;2023-01-27T00:53:22;98276.97;;;-0.42;69.01
45327;BME280;31062;49.678;24.560;2023-01-27T00:56:09;98417.06;;;0.60;69.32
45327;BME280;31062;49.678;24.560;2023-01-27T00:58:55;98434.16;;;0.66;68.97
45327;BME280;31062;49.678;24.560;2023-01-27T01:01:41;98437.94;;;0.52;69.16
45327;BME280;31062;49.678;24.560;2023-01-27T01:04:27;98420.06;;;0.56;69.15
45327;BME280;31062;49.678;24.560;2023-01-27T01:07:12;98412.38;;;0.55;69.46
45327;BME280;31062;49.678;24.560;2023-01-27T01:09:58;98442.16;;;0.58;68.95
45327;BME280;31062;49.678;24.560;2023-01-27T01:12:44;98399.81;;;0.40;68.92
45327;BME280;31062;49.678;24.560;2023-01-27T01:15:30;98428.22;;;0.62;69.23
45327;BME280;31062;49.678;24.560;2023-01-27T01:18:18;98268.78;;;-0.42;69.07
45327;BME280;31062;49.678;24.560;2023-01-27T01:21:05;98252.50;;;-0.53;69.25
45327;BME280;31062;49.678;24.560;2023-01-27T01:23:53;98451.78;;;0.65;69.31
45327;BME280;31062;49.678;24.560;2023-01-27T01:26:40;98436.88;;;0.66;69.57
45327;BME280;31062;49.678;24.560;2023-01-27T01:29:26;98398.56;;;0.42;69.79
45327;BME280;31062;49.678;24.560;2023-01-27T01:32:11;98448.06;;;0.62;68.96
45327;BME280;31062;49.678;24.560;2023-01-27T01:34:57;98405.97;;;0.52;69.26
45327;BME280;31062;49.678;24.560;2023-01-27T01:37:42;98423.03;;;0.64;69.42
45327;BME280;31062;49.678;24.560;2023-01-27T01:40:27;98412.69;;;0.46;69.60
45327;BME280;31062;49.678;24.560;2023-01-27T01:43:16;98412.16;;;0.53;69.49
45327;BME280;31062;49.678;24.560;2023-01-27T01:46:02;98284.16;;;-0.38;69.28
45327;BME280;31062;49.678;24.560;2023-01-27T01:49:00;98440.38;;;0.61;69.59
45327;BME280;31062;49.678;24.560;2023-01-27T01:51:50;98447.13;;;0.49;69.69
45327;BME280;31062;49.678;24.560;2023-01-27T01:54:42;98415.41;;;0.46;69.55
45327;BME280;31062;49.678;24.560;2023-01-27T01:57:32;98328.41;;;-0.21;69.95
45327;BME280;31062;49.678;24.560;2023-01-27T02:00:22;98432.75;;;0.48;70.38
45327;BME280;31062;49.678;24.560;2023-01-27T02:03:09;98424.13;;;0.38;70.37
45327;BME280;31062;49.678;24.560;2023-01-27T02:05:55;98456.09;;;0.38;70.64
45327;BME280;31062;49.678;24.560;2023-01-27T02:08:43;98444.41;;;0.49;70.18
45327;BME280;31062;49.678;24.560;2023-01-27T02:11:29;98461.78;;;0.46;70.44
45327;BME280;31062;49.678;24.560;2023-01-27T02:14:19;98266.16;;;-0.69;70.49
45327;BME280;31062;49.678;24.560;2023-01-27T02:17:04;98364.31;;;-0.06;70.35
45327;BME280;31062;49.678;24.560;2023-01-27T02:20:20;98454.88;;;0.33;70.76
45327;BME280;31062;49.678;24.560;2023-01-27T02:26:25;98438.56;;;0.17;70.61
45327;BME280;31062;49.678;24.560;2023-01-27T02:29:14;98245.19;;;-0.91;71.07
45327;BME280;31062;49.678;24.560;2023-01-27T02:32:00;98436.50;;;0.39;71.48
45327;BME280;31062;49.678;24.560;2023-01-27T02:34:46;98438.50;;;0.33;71.15
45327;BME280;31062;49.678;24.560;2023-01-27T02:37:32;98263.94;;;-0.82;70.83
45327;BME280;31062;49.678;24.560;2023-01-27T02:40:20;98413.75;;;0.20;71.24
45327;BME280;31062;49.678;24.560;2023-01-27T02:43:07;98431.16;;;0.17;71.48
45327;BME280;31062;49.678;24.560;2023-01-27T02:45:53;98417.69;;;0.30;71.48
45327;BME280;31062;49.678;24.560;2023-01-27T02:48:39;98423.41;;;0.32;71.44
45327;BME280;31062;49.678;24.560;2023-01-27T02:51:25;98455.13;;;0.35;72.04
45327;BME280;31062;49.678;24.560;2023-01-27T02:54:11;98427.59;;;0.33;71.85
45327;BME280;31062;49.678;24.560;2023-01-27T02:56:56;98405.34;;;0.18;71.84
45327;BME280;31062;49.678;24.560;2023-01-27T02:59:44;98230.59;;;-0.99;71.60
45327;BME280;31062;49.678;24.560;2023-01-27T03:02:30;98428.91;;;0.16;72.09
45327;BME280;31062;49.678;24.560;2023-01-27T03:05:16;98415.72;;;0.25;72.53
45327;BME280;31062;49.678;24.560;2023-01-27T03:08:01;98396.44;;;0.12;72.51
45327;BME280;31062;49.678;24.560;2023-01-27T03:10:52;98420.41;;;0.30;72.45
45327;BME280;31062;49.678;24.560;2023-01-27T03:13:39;98392.25;;;0.11;72.58
45327;BME280;31062;49.678;24.560;2023-01-27T03:16:25;98271.38;;;-0.66;72.49
45327;BME280;31062;49.678;24.560;2023-01-27T03:19:29;98240.44;;;-0.79;72.31
45327;BME280;31062;49.678;24.560;2023-01-27T03:22:14;98283.47;;;-0.56;72.57
45327;BME280;31062;49.678;24.560;2023-01-27T03:25:00;98234.28;;;-0.86;72.01
45327;BME280;31062;49.678;24.560;2023-01-27T03:27:46;98447.66;;;0.47;72.54
45327;BME280;31062;49.678;24.560;2023-01-27T03:30:41;98425.31;;;0.49;72.40
45327;BME280;31062;49.678;24.560;2023-01-27T03:33:35;98274.78;;;-0.49;71.90
45327;BME280;31062;49.678;24.560;2023-01-27T03:36:35;98392.66;;;0.32;71.88
45327;BME280;31062;49.678;24.560;2023-01-27T03:39:40;98419.06;;;0.54;72.39
45327;BME280;31062;49.678;24.560;2023-01-27T03:42:44;98277.50;;;-0.49;72.02
45327;BME280;31062;49.678;24.560;2023-01-27T03:45:49;98470.88;;;0.65;71.94
45327;BME280;31062;49.678;24.560;2023-01-27T03:48:55;98391.84;;;0.43;72.61
45327;BME280;31062;49.678;24.560;2023-01-27T03:51:40;98467.13;;;0.68;71.85
45327;BME280;31062;49.678;24.560;2023-01-27T03:54:26;98403.72;;;0.51;72.11
45327;BME280;31062;49.678;24.560;2023-01-27T03:57:11;98462.44;;;0.68;71.95
45327;BME280;31062;49.678;24.560;2023-01-27T03:59:57;98218.91;;;-0.72;72.23
45327;BME280;31062;49.678;24.560;2023-01-27T04:02:42;98421.63;;;0.40;72.14
45327;BME280;31062;49.678;24.560;2023-01-27T04:05:47;98412.16;;;0.53;72.11
45327;BME280;31062;49.678;24.560;2023-01-27T04:08:51;98265.88;;;-0.49;72.21
45327;BME280;31062;49.678;24.560;2023-01-27T04:11:36;98421.13;;;0.48;72.47
45327;BME280;31062;49.678;24.560;2023-01-27T04:14:41;98420.09;;;0.51;72.06
45327;BME280;31062;49.678;24.560;2023-01-27T04:17:26;98436.97;;;0.44;72.54
45327;BME280;31062;49.678;24.560;2023-01-27T04:20:12;98315.81;;;-0.35;72.55
45327;BME280;31062;49.678;24.560;2023-01-27T04:22:57;98405.31;;;0.29;73.02
45327;BME280;31062;49.678;24.560;2023-01-27T04:25:43;98230.84;;;-0.97;72.63
45327;BME280;31062;49.678;24.560;2023-01-27T04:28:32;98232.81;;;-1.03;72.87
45327;BME280;31062;49.678;24.560;2023-01-27T04:31:29;98445.50;;;0.23;73.12
45327;BME280;31062;49.678;24.560;2023-01-27T04:34:17;98416.25;;;0.18;72.98
45327;BME280;31062;49.678;24.560;2023-01-27T04:37:05;98417.50;;;0.17;73.40
45327;BME280;31062;49.678;24.560;2023-01-27T04:39:51;98227.63;;;-1.18;73.21
45327;BME280;31062;49.678;24.560;2023-01-27T04:42:36;98386.34;;;-0.10;73.95
45327;BME280;31062;49.678;24.560;2023-01-27T04:45:22;98451.72;;;0.07;74.30
45327;BME280;31062;49.678;24.560;2023-01-27T04:48:07;98394.28;;;-0.01;74.46
45327;BME280;31062;49.678;24.560;2023-01-27T04:50:53;98417.72;;;0.19;74.07
45327;BME280;31062;49.678;24.560;2023-01-27T04:53:38;98371.97;;;-0.05;73.75
45327;BME280;31062;49.678;24.560;2023-01-27T04:56:29;98429.38;;;0.25;73.88
45327;BME280;31062;49.678;24.560;2023-01-27T04:59:16;98249.63;;;-0.99;73.87
45327;BME280;31062;49.678;24.560;2023-01-27T05:02:01;98456.19;;;0.10;74.47
45327;BME280;31062;49.678;24.560;2023-01-27T05:04:48;98226.41;;;-1.23;74.21
45327;BME280;31062;49.678;24.560;2023-01-27T05:07:34;98403.19;;;-0.06;74.28
45327;BME280;31062;49.678;24.560;2023-01-27T05:10:19;98356.94;;;-0.33;74.15
45327;BME280;31062;49.678;24.560;2023-01-27T05:13:05;98227.41;;;-1.26;73.67
45327;BME280;31062;49.678;24.560;2023-01-27T05:15:50;98377.22;;;-0.23;74.37
45327;BME280;31062;49.678;24.560;2023-01-27T05:18:37;98429.69;;;0.05;73.98
45327;BME280;31062;49.678;24.560;2023-01-27T05:21:25;98206.91;;;-1.43;74.10
45327;BME280;31062;49.678;24.560;2023-01-27T05:24:15;98420.78;;;-0.01;74.33
45327;BME280;31062;49.678;24.560;2023-01-27T05:27:00;98427.75;;;-0.22;74.47
45327;BME280;31062;49.678;24.560;2023-01-27T05:29:46;98271.41;;;-1.10;73.87
45327;BME280;31062;49.678;24.560;2023-01-27T05:32:31;98441.09;;;-0.02;74.75
45327;BME280;31062;49.678;24.560;2023-01-27T05:35:17;98435.66;;;-0.02;74.79
45327;BME280;31062;49.678;24.560;2023-01-27T05:38:14;98450.03;;;-0.29;74.57
45327;BME280;31062;49.678;24.560;2023-01-27T05:41:11;98445.56;;;-0.10;74.43
45327;BME280;31062;49.678;24.560;2023-01-27T05:43:58;98420.59;;;-0.36;74.57
45327;BME280;31062;49.678;24.560;2023-01-27T05:46:44;98426.78;;;-0.30;74.28
45327;BME280;31062;49.678;24.560;2023-01-27T05:49:30;98421.09;;;-0.38;74.57
45327;BME280;31062;49.678;24.560;2023-01-27T05:52:15;98451.78;;;-0.26;74.66
45327;BME280;31062;49.678;24.560;2023-01-27T05:55:01;98447.31;;;-0.29;74.69
45327;BME280;31062;49.678;24.560;2023-01-27T05:57:46;98461.94;;;-0.32;74.47
45327;BME280;31062;49.678;24.560;2023-01-27T06:00:32;98419.13;;;-0.54;75.21
45327;BME280;31062;49.678;24.560;2023-01-27T06:03:21;98436.69;;;-0.38;74.77
45327;BME280;31062;49.678;24.560;2023-01-27T06:06:13;98253.34;;;-1.63;74.72
45327;BME280;31062;49.678;24.560;2023-01-27T06:08:59;98431.72;;;-0.46;74.37
45327;BME280;31062;49.678;24.560;2023-01-27T06:11:45;98449.81;;;-0.26;74.87
45327;BME280;31062;49.678;24.560;2023-01-27T06:14:33;98439.13;;;-0.29;74.64
45327;BME280;31062;49.678;24.560;2023-01-27T06:17:25;98452.53;;;-0.20;74.81
45327;BME280;31062;49.678;24.560;2023-01-27T06:20:11;98278.09;;;-1.34;74.14
45327;BME280;31062;49.678;24.560;2023-01-27T06:22:58;98440.88;;;-0.21;74.36
45327;BME280;31062;49.678;24.560;2023-01-27T06:25:47;98475.78;;;-0.08;74.67
45327;BME280;31062;49.678;24.560;2023-01-27T06:28:37;98435.16;;;-0.17;73.61
45327;BME280;31062;49.678;24.560;2023-01-27T06:31:23;98455.47;;;-0.07;74.43
45327;BME280;31062;49.678;24.560;2023-01-27T06:34:13;98254.59;;;-1.48;74.06
45327;BME280;31062;49.678;24.560;2023-01-27T06:36:59;98451.50;;;-0.17;74.04
45327;BME280;31062;49.678;24.560;2023-01-27T06:39:45;98459.44;;;-0.42;73.71
45327;BME280;31062;49.678;24.560;2023-01-27T06:42:33;98461.69;;;-0.23;74.17
45327;BME280;31062;49.678;24.560;2023-01-27T06:45:19;98309.50;;;-1.33;73.96
45327;BME280;31062;49.678;24.560;2023-01-27T06:48:08;98442.13;;;-0.38;74.31
45327;BME280;31062;49.678;24.560;2023-01-27T06:50:54;98444.09;;;-0.33;73.94
45327;BME280;31062;49.678;24.560;2023-01-27T06:53:41;98449.06;;;-0.37;74.41
45327;BME280;31062;49.678;24.560;2023-01-27T06:56:27;98470.59;;;-0.28;73.90
45327;BME280;31062;49.678;24.560;2023-01-27T06:59:15;98465.16;;;-0.34;74.70
45327;BME280;31062;49.678;24.560;2023-01-27T07:02:01;98466.16;;;-0.37;74.21
45327;BME280;31062;49.678;24.560;2023-01-27T07:04:46;98456.72;;;-0.58;74.44
45327;BME280;31062;49.678;24.560;2023-01-27T07:07:32;98448.56;;;-0.42;74.29
45327;BME280;31062;49.678;24.560;2023-01-27T07:10:18;98454.00;;;-0.42;74.03
45327;BME280;31062;49.678;24.560;2023-01-27T07:13:06;98463.94;;;-0.50;74.55
45327;BME280;31062;49.678;24.560;2023-01-27T07:15:54;98321.63;;;-1.28;74.23
45327;BME280;31062;49.678;24.560;2023-01-27T07:18:43;98450.78;;;-0.29;75.03
45327;BME280;31062;49.678;24.560;2023-01-27T07:21:29;98445.84;;;-0.19;75.03
45327;BME280;31062;49.678;24.560;2023-01-27T07:24:15;98428.75;;;-0.25;74.86
45327;BME280;31062;49.678;24.560;2023-01-27T07:27:00;98431.72;;;-0.12;73.86
45327;BME280;31062;49.678;24.560;2023-01-27T07:29:46;98434.41;;;-0.07;73.79
45327;BME280;31062;49.678;24.560;2023-01-27T07:32:32;98484.94;;;0.06;73.84
45327;BME280;31062;49.678;24.560;2023-01-27T07:35:18;98453.22;;;0.08;73.25
45327;BME280;31062;49.678;24.560;2023-01-27T07:38:05;98461.38;;;0.14;72.97
45327;BME280;31062;49.678;24.560;2023-01-27T07:40:51;98459.38;;;0.14;73.36
45327;BME280;31062;49.678;24.560;2023-01-27T07:43:36;98438.88;;;-0.04;73.27
45327;BME280;31062;49.678;24.560;2023-01-27T07:46:25;98488.13;;;0.15;73.16
45327;BME280;31062;49.678;24.560;2023-01-27T07:49:11;98308.75;;;-0.94;72.68
45327;BME280;31062;49.678;24.560;2023-01-27T07:51:57;98460.91;;;0.04;72.37
45327;BME280;31062;49.678;24.560;2023-01-27T07:54:43;98459.91;;;0.02;72.65
45327;BME280;31062;49.678;24.560;2023-01-27T07:57:28;98444.06;;;-0.11;72.54
45327;BME280;31062;49.678;24.560;2023-01-27T08:00:14;98445.31;;;-0.23;73.11
45327;BME280;31062;49.678;24.560;2023-01-27T08:03:01;98273.41;;;-1.55;72.58
45327;BME280;31062;49.678;24.560;2023-01-27T08:05:48;98467.38;;;-0.10;73.10
45327;BME280;31062;49.678;24.560;2023-01-27T08:08:35;98474.31;;;-0.09;73.01
45327;BME280;31062;49.678;24.560;2023-01-27T08:11:22;98482.00;;;-0.08;73.12
45327;BME280;31062;49.678;24.560;2023-01-27T08:14:08;98345.88;;;-0.97;73.37
45327;BME280;31062;49.678;24.560;2023-01-27T08:16:56;98482.00;;;-0.08;73.34
45327;BME280;31062;49.678;24.560;2023-01-27T08:19:42;98316.44;;;-1.20;73.20
45327;BME280;31062;49.678;24.560;2023-01-27T08:22:29;98492.16;;;-0.08;73.51
45327;BME280;31062;49.678;24.560;2023-01-27T08:25:15;98449.53;;;-0.22;73.46
45327;BME280;31062;49.678;24.560;2023-01-27T08:28:01;98453.50;;;-0.12;72.99
45327;BME280;31062;49.678;24.560;2023-01-27T08:30:47;98462.41;;;-0.06;73.04
45327;BME280;31062;49.678;24.560;2023-01-27T08:33:37;98419.34;;;-0.35;72.70
45327;BME280;31062;49.678;24.560;2023-01-27T08:36:23;98428.75;;;-0.25;73.07
45327;BME280;31062;49.678;24.560;2023-01-27T08:39:14;98440.63;;;-0.23;72.72
45327;BME280;31062;49.678;24.560;2023-01-27T08:41:59;98317.91;;;-1.19;73.09
45327;BME280;31062;49.678;24.560;2023-01-27T08:44:45;98449.31;;;-0.30;73.06
45327;BME280;31062;49.678;24.560;2023-01-27T08:47:30;98491.66;;;-0.12;73.30
45327;BME280;31062;49.678;24.560;2023-01-27T08:50:16;98471.84;;;-0.07;73.45
45327;BME280;31062;49.678;24.560;2023-01-27T08:53:03;98433.94;;;-0.33;73.50
45327;BME280;31062;49.678;24.560;2023-01-27T08:55:49;98445.84;;;-0.19;72.91
45327;BME280;31062;49.678;24.560;2023-01-27T08:58:36;98323.59;;;-0.95;73.32
45327;BME280;31062;49.678;24.560;2023-01-27T09:01:22;98481.97;;;0.09;73.18
45327;BME280;31062;49.678;24.560;2023-01-27T09:04:09;98456.47;;;-0.27;73.90
45327;BME280;31062;49.678;24.560;2023-01-27T09:06:55;98476.78;;;0.06;73.38
45327;BME280;31062;49.678;24.560;2023-01-27T09:09:46;98481.69;;;0.18;73.60
45327;BME280;31062;49.678;24.560;2023-01-27T09:12:33;98482.94;;;0.23;73.86
45327;BME280;31062;49.678;24.560;2023-01-27T09:15:20;98472.50;;;0.27;73.59
45327;BME280;31062;49.678;24.560;2023-01-27T09:18:06;98273.16;;;-1.07;73.52
45327;BME280;31062;49.678;24.560;2023-01-27T09:20:53;98458.38;;;0.28;73.51
45327;BME280;31062;49.678;24.560;2023-01-27T09:23:46;98273.88;;;-0.96;73.79
45327;BME280;31062;49.678;24.560;2023-01-27T09:26:32;98449.69;;;0.19;73.70
45327;BME280;31062;49.678;24.560;2023-01-27T09:29:18;98271.41;;;-0.99;73.32
45327;BME280;31062;49.678;24.560;2023-01-27T09:32:04;98473.75;;;0.20;73.69
45327;BME280;31062;49.678;24.560;2023-01-27T09:34:49;98268.66;;;-0.94;73.76
45327;BME280;31062;49.678;24.560;2023-01-27T09:37:43;98454.91;;;0.22;74.27
45327;BME280;31062;49.678;24.560;2023-01-27T09:49:48;98436.38;;;0.67;73.58
45327;BME280;31062;49.678;24.560;2023-01-27T09:56:11;98445.06;;;0.66;74.31
45327;BME280;31062;49.678;24.560;2023-01-27T09:59:19;98429.00;;;0.57;74.36
45327;BME280;31062;49.678;24.560;2023-01-27T10:20:46;98434.34;;;0.79;73.83
45327;BME280;31062;49.678;24.560;2023-01-27T10:23:46;98455.66;;;0.86;73.61
45327;BME280;31062;49.678;24.560;2023-01-27T10:26:46;98319.16;;;0.04;73.47
45327;BME280;31062;49.678;24.560;2023-01-27T10:29:44;98427.94;;;0.71;72.96
45327;BME280;31062;49.678;24.560;2023-01-27T10:36:26;98442.53;;;0.79;73.45
45327;BME280;31062;49.678;24.560;2023-01-27T10:39:41;98280.16;;;-0.26;73.26
45327;BME280;31062;49.678;24.560;2023-01-27T10:42:36;98457.94;;;0.76;74.01
45327;BME280;31062;49.678;24.560;2023-01-27T10:45:33;98413.34;;;0.63;73.96
45327;BME280;31062;49.678;24.560;2023-01-27T10:51:41;98451.72;;;0.76;74.48
45327;BME280;31062;49.678;24.560;2023-01-27T10:54:39;98294.03;;;-0.35;74.45
45327;BME280;31062;49.678;24.560;2023-01-27T10:57:40;98418.50;;;0.72;74.83
45327;BME280;31062;49.678;24.560;2023-01-27T11:00:32;98428.13;;;0.78;74.98
45327;BME280;31062;49.678;24.560;2023-01-27T11:03:51;98395.50;;;0.62;74.88
45327;BME280;31062;49.678;24.560;2023-01-27T11:06:40;98200.31;;;-0.68;74.91
45327;BME280;31062;49.678;24.560;2023-01-27T11:09:35;98419.22;;;0.78;75.26
45327;BME280;31062;49.678;24.560;2023-01-27T11:12:29;98338.38;;;0.28;75.14
45327;BME280;31062;49.678;24.560;2023-01-27T11:15:31;98262.78;;;-0.23;74.63
45327;BME280;31062;49.678;24.560;2023-01-27T11:18:21;98418.91;;;0.87;75.17
45327;BME280;31062;49.678;24.560;2023-01-27T11:21:14;98225.75;;;-0.49;74.84
45327;BME280;31062;49.678;24.560;2023-01-27T11:24:21;98380.34;;;0.61;75.62
45327;BME280;31062;49.678;24.560;2023-01-27T11:27:35;98422.19;;;0.80;75.47
45327;BME280;31062;49.678;24.560;2023-01-27T11:30:41;98343.84;;;0.28;76.29
45327;BME280;31062;49.678;24.560;2023-01-27T11:36:36;98382.38;;;0.55;76.44
45327;BME280;31062;49.678;24.560;2023-01-27T11:39:22;98383.84;;;0.61;76.61
45327;BME280;31062;49.678;24.560;2023-01-27T11:42:08;98409.28;;;0.80;75.99
45327;BME280;31062;49.678;24.560;2023-01-27T11:44:56;98404.84;;;0.77;76.39
45327;BME280;31062;49.678;24.560;2023-01-27T11:47:43;98410.03;;;0.81;76.92
45327;BME280;31062;49.678;24.560;2023-01-27T11:50:34;98430.13;;;0.78;76.95
45327;BME280;31062;49.678;24.560;2023-01-27T11:53:30;98392.69;;;0.73;76.63
45327;BME280;31062;49.678;24.560;2023-01-27T11:56:25;98247.00;;;-0.30;76.87
45327;BME280;31062;49.678;24.560;2023-01-27T11:59:20;98375.84;;;0.69;77.03
45327;BME280;31062;49.678;24.560;2023-01-27T12:02:20;98388.03;;;0.62;77.19
45327;BME280;31062;49.678;24.560;2023-01-27T12:05:20;98396.06;;;0.90;77.26
45327;BME280;31062;49.678;24.560;2023-01-27T12:08:09;98404.50;;;0.92;77.16
45327;BME280;31062;49.678;24.560;2023-01-27T12:14:22;98395.53;;;0.97;76.96
45327;BME280;31062;49.678;24.560;2023-01-27T12:17:18;98359.94;;;0.73;76.92
45327;BME280;31062;49.678;24.560;2023-01-27T12:20:25;98395.06;;;0.93;77.21
45327;BME280;31062;49.678;24.560;2023-01-27T12:23:35;98426.78;;;0.96;77.26
45327;BME280;31062;49.678;24.560;2023-01-27T12:26:33;98369.09;;;0.81;76.81
45327;BME280;31062;49.678;24.560;2023-01-27T12:29:25;98418.13;;;0.92;77.01
45327;BME280;31062;49.678;24.560;2023-01-27T12:32:15;98387.16;;;0.84;77.06
45327;BME280;31062;49.678;24.560;2023-01-27T12:35:02;98325.88;;;0.50;77.10
45327;BME280;31062;49.678;24.560;2023-01-27T12:37:59;98196.47;;;-0.31;77.14
45327;BME280;31062;49.678;24.560;2023-01-27T12:40:56;98401.94;;;1.05;77.25
45327;BME280;31062;49.678;24.560;2023-01-27T12:49:45;98328.84;;;0.52;76.89
45327;BME280;31062;49.678;24.560;2023-01-27T12:52:30;98379.25;;;0.80;77.05
45327;BME280;31062;49.678;24.560;2023-01-27T12:55:28;98415.88;;;0.96;77.48
45327;BME280;31062;49.678;24.560;2023-01-27T13:04:18;98397.78;;;0.93;77.88
45327;BME280;31062;49.678;24.560;2023-01-27T13:07:16;98209.09;;;-0.34;77.29
45327;BME280;31062;49.678;24.560;2023-01-27T13:10:06;98398.25;;;0.97;77.64
45327;BME280;31062;49.678;24.560;2023-01-27T13:13:01;98401.47;;;1.01;77.17
45327;BME280;31062;49.678;24.560;2023-01-27T13:15:54;98403.94;;;0.99;77.19
45327;BME280;31062;49.678;24.560;2023-01-27T13:18:56;98382.47;;;0.79;77.24
45327;BME280;31062;49.678;24.560;2023-01-27T13:21:45;98394.53;;;1.00;76.58
45327;BME280;31062;49.678;24.560;2023-01-27T13:24:36;98400.72;;;1.01;76.97
45327;BME280;31062;49.678;24.560;2023-01-27T13:27:35;98396.00;;;1.01;77.00
45327;BME280;31062;49.678;24.560;2023-01-27T13:30:52;98389.06;;;1.00;76.30
45327;BME280;31062;49.678;24.560;2023-01-27T13:33:56;98400.47;;;0.99;76.47
45327;BME280;31062;49.678;24.560;2023-01-27T13:36:59;98410.41;;;0.96;76.79
45327;BME280;31062;49.678;24.560;2023-01-27T13:43:06;98399.75;;;0.98;76.42
45327;BME280;31062;49.678;24.560;2023-01-27T13:49:15;98402.94;;;1.02;77.26
45327;BME280;31062;49.678;24.560;2023-01-27T13:52:06;98431.25;;;0.99;77.21
45327;BME280;31062;49.678;24.560;2023-01-27T13:54:51;98386.69;;;0.80;76.95
45327;BME280;31062;49.678;24.560;2023-01-27T13:57:55;98403.94;;;0.99;76.66
45327;BME280;31062;49.678;24.560;2023-01-27T14:22:31;98401.56;;;1.20;76.42
45327;BME280;31062;49.678;24.560;2023-01-27T14:28:51;98194.38;;;-0.14;76.33
45327;BME280;31062;49.678;24.560;2023-01-27T14:35:31;98402.03;;;1.24;76.46
45327;BME280;31062;49.678;24.560;2023-01-27T14:38:31;98396.84;;;1.20;76.02
45327;BME280;31062;49.678;24.560;2023-01-27T14:47:23;98434.22;;;1.01;76.54
45327;BME280;31062;49.678;24.560;2023-01-27T14:56:44;98380.78;;;0.76;76.73
45327;BME280;31062;49.678;24.560;2023-01-27T15:05:56;98413.63;;;1.00;77.46
45327;BME280;31062;49.678;24.560;2023-01-27T15:09:02;98404.41;;;1.03;76.99
45327;BME280;31062;49.678;24.560;2023-01-27T15:27:09;98264.78;;;-0.18;77.51
45327;BME280;31062;49.678;24.560;2023-01-27T15:30:20;98418.38;;;0.94;78.29
45327;BME280;31062;49.678;24.560;2023-01-27T15:33:49;98423.84;;;0.94;78.06
45327;BME280;31062;49.678;24.560;2023-01-27T15:36:36;98424.63;;;0.89;78.05
45327;BME280;31062;49.678;24.560;2023-01-27T15:39:23;98438.50;;;0.91;78.00
45327;BME280;31062;49.678;24.560;2023-01-27T15:42:59;98439.22;;;0.92;77.60
45327;BME280;31062;49.678;24.560;2023-01-27T15:45:46;98440.19;;;1.00;77.71
45327;BME280;31062;49.678;24.560;2023-01-27T15:48:37;98453.84;;;1.00;77.10
45327;BME280;31062;49.678;24.560;2023-01-27T15:51:23;98409.00;;;0.84;77.44
45327;BME280;31062;49.678;24.560;2023-01-27T15:54:19;98423.31;;;1.01;76.67
45327;BME280;31062;49.678;24.560;2023-01-27T15:57:23;98409.00;;;0.84;77.07
45327;BME280;31062;49.678;24.560;2023-01-27T16:00:47;98258.78;;;-0.11;77.01
45327;BME280;31062;49.678;24.560;2023-01-27T16:03:31;98428.53;;;0.99;76.44
45327;BME280;31062;49.678;24.560;2023-01-27T16:06:23;98442.72;;;0.92;76.34
45327;BME280;31062;49.678;24.560;2023-01-27T16:09:19;98447.56;;;1.10;76.67
45327;BME280;31062;49.678;24.560;2023-01-27T16:15:34;98436.94;;;1.07;76.37
45327;BME280;31062;49.678;24.560;2023-01-27T16:18:41;98452.00;;;1.13;76.29
45327;BME280;31062;49.678;24.560;2023-01-27T16:21:55;98460.97;;;1.08;76.49
45327;BME280;31062;49.678;24.560;2023-01-27T16:24:58;98451.31;;;1.02;76.16
45327;BME280;31062;49.678;24.560;2023-01-27T16:28:17;98453.09;;;0.99;76.56
45327;BME280;31062;49.678;24.560;2023-01-27T16:31:11;98343.63;;;0.21;75.60
45327;BME280;31062;49.678;24.560;2023-01-27T16:34:02;98425.44;;;0.73;76.04
45327;BME280;31062;49.678;24.560;2023-01-27T16:37:15;98464.28;;;0.90;76.26
45327;BME280;31062;49.678;24.560;2023-01-27T16:40:03;98456.59;;;0.94;76.65
45327;BME280;31062;49.678;24.560;2023-01-27T16:46:04;98447.16;;;0.95;76.74
45327;BME280;31062;49.678;24.560;2023-01-27T16:48:51;98302.81;;;0.04;76.15
45327;BME280;31062;49.678;24.560;2023-01-27T16:51:37;98448.03;;;1.14;75.93
45327;BME280;31062;49.678;24.560;2023-01-27T16:54:24;98454.16;;;1.26;75.40
45327;BME280;31062;49.678;24.560;2023-01-27T16:57:31;98458.13;;;1.31;75.58
45327;BME280;31062;49.678;24.560;2023-01-27T17:00:24;98451.63;;;1.34;75.59
45327;BME280;31062;49.678;24.560;2023-01-27T17:03:16;98434.06;;;1.23;74.74
45327;BME280;31062;49.678;24.560;2023-01-27T17:06:06;98483.84;;;1.41;74.16
45327;BME280;31062;49.678;24.560;2023-01-27T17:08:52;98466.22;;;1.42;73.65
45327;BME280;31062;49.678;24.560;2023-01-27T17:11:40;98288.59;;;0.22;73.38
45327;BME280;31062;49.678;24.560;2023-01-27T17:14:34;98343.25;;;0.47;73.38
45327;BME280;31062;49.678;24.560;2023-01-27T17:17:22;98457.41;;;1.25;73.61